sensor_id;sensor_type;location;lat;lon;timestamp;temperature;humidity
76104;HTU21D;64831;44.870;37.336;2022-12-07T00:01:10;4.69;69.82
76104;HTU21D;64831;44.870;37.336;2022-12-07T00:03:37;4.68;69.94
76104;HTU21D;64831;44.870;37.336;2022-12-07T00:06:05;4.64;70.00
76104;HTU21D;64831;44.870;37.336;2022-12-07T00:08:33;4.62;70.11
76104;HTU21D;64831;44.870;37.336;2022-12-07T00:11:03;4.61;70.20
76104;HTU21D;64831;44.870;37.336;2022-12-07T00:13:32;4.60;70.32
76104;HTU21D;64831;44.870;37.336;2022-12-07T00:16:07;4.61;70.58
76104;HTU21D;64831;44.870;37.336;2022-12-07T00:18:33;4.60;70.73
76104;HTU21D;64831;44.870;37.336;2022-12-07T00:21:13;4.60;70.93
76104;HTU21D;64831;44.870;37.336;2022-12-07T00:23:41;4.61;71.38
76104;HTU21D;64831;44.870;37.336;2022-12-07T00:28:38;4.63;71.57
76104;HTU21D;64831;44.870;37.336;2022-12-07T00:31:11;4.64;71.65
76104;HTU21D;64831;44.870;37.336;2022-12-07T00:33:41;4.67;71.84
76104;HTU21D;64831;44.870;37.336;2022-12-07T00:36:09;4.67;72.03
76104;HTU21D;64831;44.870;37.336;2022-12-07T00:38:37;4.72;72.13
76104;HTU21D;64831;44.870;37.336;2022-12-07T00:41:06;4.75;72.29
76104;HTU21D;64831;44.870;37.336;2022-12-07T00:43:33;4.78;72.46
76104;HTU21D;64831;44.870;37.336;2022-12-07T00:45:59;4.80;72.53
76104;HTU21D;64831;44.870;37.336;2022-12-07T00:48:25;4.80;72.41
76104;HTU21D;64831;44.870;37.336;2022-12-07T00:50:51;4.77;72.32
76104;HTU21D;64831;44.870;37.336;2022-12-07T00:53:18;4.79;72.55
76104;HTU21D;64831;44.870;37.336;2022-12-07T00:55:44;4.74;72.64
76104;HTU21D;64831;44.870;37.336;2022-12-07T00:58:10;4.76;72.65
76104;HTU21D;64831;44.870;37.336;2022-12-07T01:00:38;4.74;72.53
76104;HTU21D;64831;44.870;37.336;2022-12-07T01:03:06;4.74;72.38
76104;HTU21D;64831;44.870;37.336;2022-12-07T01:05:32;4.77;72.41
76104;HTU21D;64831;44.870;37.336;2022-12-07T01:07:58;4.76;72.26
76104;HTU21D;64831;44.870;37.336;2022-12-07T01:10:24;4.76;72.18
76104;HTU21D;64831;44.870;37.336;2022-12-07T01:12:49;4.78;72.15
76104;HTU21D;64831;44.870;37.336;2022-12-07T01:15:15;4.81;72.14
76104;HTU21D;64831;44.870;37.336;2022-12-07T01:17:41;4.81;72.13
76104;HTU21D;64831;44.870;37.336;2022-12-07T01:20:08;4.82;72.06
76104;HTU21D;64831;44.870;37.336;2022-12-07T01:22:38;4.86;72.06
76104;HTU21D;64831;44.870;37.336;2022-12-07T01:25:05;4.86;72.01
76104;HTU21D;64831;44.870;37.336;2022-12-07T01:27:33;4.86;71.96
76104;HTU21D;64831;44.870;37.336;2022-12-07T01:29:59;4.86;71.96
76104;HTU21D;64831;44.870;37.336;2022-12-07T01:32:25;4.86;71.96
76104;HTU21D;64831;44.870;37.336;2022-12-07T01:34:51;4.86;71.98
76104;HTU21D;64831;44.870;37.336;2022-12-07T01:37:17;4.87;71.94
76104;HTU21D;64831;44.870;37.336;2022-12-07T01:39:42;4.89;71.99
76104;HTU21D;64831;44.870;37.336;2022-12-07T01:42:12;4.90;72.00
76104;HTU21D;64831;44.870;37.336;2022-12-07T01:47:41;4.89;71.95
76104;HTU21D;64831;44.870;37.336;2022-12-07T01:50:09;4.88;71.96
76104;HTU21D;64831;44.870;37.336;2022-12-07T01:52:36;4.88;71.98
76104;HTU21D;64831;44.870;37.336;2022-12-07T01:55:11;4.86;71.98
76104;HTU21D;64831;44.870;37.336;2022-12-07T01:57:43;4.87;71.94
76104;HTU21D;64831;44.870;37.336;2022-12-07T02:00:12;4.86;71.90
76104;HTU21D;64831;44.870;37.336;2022-12-07T02:02:57;4.84;71.89
76104;HTU21D;64831;44.870;37.336;2022-12-07T02:05:26;4.83;71.90
76104;HTU21D;64831;44.870;37.336;2022-12-07T02:07:55;4.79;71.85
76104;HTU21D;64831;44.870;37.336;2022-12-07T02:10:27;4.79;71.84
76104;HTU21D;64831;44.870;37.336;2022-12-07T02:12:57;4.79;71.79
76104;HTU21D;64831;44.870;37.336;2022-12-07T02:27:02;4.68;71.77
76104;HTU21D;64831;44.870;37.336;2022-12-07T02:29:50;4.64;71.88
76104;HTU21D;64831;44.870;37.336;2022-12-07T02:32:40;4.61;72.00
76104;HTU21D;64831;44.870;37.336;2022-12-07T02:35:20;4.61;72.08
76104;HTU21D;64831;44.870;37.336;2022-12-07T02:40:35;4.57;72.10
76104;HTU21D;64831;44.870;37.336;2022-12-07T02:43:12;4.56;72.13
76104;HTU21D;64831;44.870;37.336;2022-12-07T02:45:41;4.58;72.16
76104;HTU21D;64831;44.870;37.336;2022-12-07T02:48:08;4.59;72.17
76104;HTU21D;64831;44.870;37.336;2022-12-07T02:50:35;4.61;72.22
76104;HTU21D;64831;44.870;37.336;2022-12-07T02:53:01;4.60;72.28
76104;HTU21D;64831;44.870;37.336;2022-12-07T02:55:37;4.63;72.29
76104;HTU21D;64831;44.870;37.336;2022-12-07T02:58:06;4.61;72.17
76104;HTU21D;64831;44.870;37.336;2022-12-07T03:00:53;4.57;72.19
76104;HTU21D;64831;44.870;37.336;2022-12-07T03:03:22;4.53;72.19
76104;HTU21D;64831;44.870;37.336;2022-12-07T03:06:16;4.50;72.30
76104;HTU21D;64831;44.870;37.336;2022-12-07T03:09:09;4.46;72.39
76104;HTU21D;64831;44.870;37.336;2022-12-07T03:11:47;4.42;72.52
76104;HTU21D;64831;44.870;37.336;2022-12-07T03:14:29;4.39;72.68
76104;HTU21D;64831;44.870;37.336;2022-12-07T03:17:00;4.41;72.88
76104;HTU21D;64831;44.870;37.336;2022-12-07T03:19:31;4.41;72.96
76104;HTU21D;64831;44.870;37.336;2022-12-07T03:22:11;4.44;73.02
76104;HTU21D;64831;44.870;37.336;2022-12-07T03:24:43;4.44;73.05
76104;HTU21D;64831;44.870;37.336;2022-12-07T03:27:16;4.45;73.14
76104;HTU21D;64831;44.870;37.336;2022-12-07T03:30:02;4.45;73.19
76104;HTU21D;64831;44.870;37.336;2022-12-07T03:35:16;4.49;73.29
76104;HTU21D;64831;44.870;37.336;2022-12-07T03:42:50;4.58;73.41
76104;HTU21D;64831;44.870;37.336;2022-12-07T03:45:16;4.60;73.37
76104;HTU21D;64831;44.870;37.336;2022-12-07T03:50:46;4.61;73.50
76104;HTU21D;64831;44.870;37.336;2022-12-07T03:53:19;4.58;73.56
76104;HTU21D;64831;44.870;37.336;2022-12-07T03:55:47;4.54;73.61
76104;HTU21D;64831;44.870;37.336;2022-12-07T03:58:19;4.54;73.76
76104;HTU21D;64831;44.870;37.336;2022-12-07T04:00:46;4.54;73.86
76104;HTU21D;64831;44.870;37.336;2022-12-07T04:03:12;4.58;73.94
76104;HTU21D;64831;44.870;37.336;2022-12-07T04:05:39;4.59;74.00
76104;HTU21D;64831;44.870;37.336;2022-12-07T04:08:05;4.63;74.13
76104;HTU21D;64831;44.870;37.336;2022-12-07T04:10:31;4.66;74.19
76104;HTU21D;64831;44.870;37.336;2022-12-07T04:12:57;4.69;74.25
76104;HTU21D;64831;44.870;37.336;2022-12-07T04:15:23;4.72;74.25
76104;HTU21D;64831;44.870;37.336;2022-12-07T04:17:49;4.75;74.24
76104;HTU21D;64831;44.870;37.336;2022-12-07T04:20:16;4.77;74.25
76104;HTU21D;64831;44.870;37.336;2022-12-07T04:22:42;4.79;74.28
76104;HTU21D;64831;44.870;37.336;2022-12-07T04:25:08;4.81;74.31
76104;HTU21D;64831;44.870;37.336;2022-12-07T04:27:34;4.83;74.38
76104;HTU21D;64831;44.870;37.336;2022-12-07T04:30:00;4.86;74.41
76104;HTU21D;64831;44.870;37.336;2022-12-07T04:32:26;4.88;74.50
76104;HTU21D;64831;44.870;37.336;2022-12-07T04:34:52;4.91;74.54
76104;HTU21D;64831;44.870;37.336;2022-12-07T04:37:17;4.94;74.62
76104;HTU21D;64831;44.870;37.336;2022-12-07T04:39:43;4.96;74.59
76104;HTU21D;64831;44.870;37.336;2022-12-07T04:42:12;5.01;74.66
76104;HTU21D;64831;44.870;37.336;2022-12-07T04:44:39;5.05;74.63
76104;HTU21D;64831;44.870;37.336;2022-12-07T12:34:02;12.87;68.17
76104;HTU21D;64831;44.870;37.336;2022-12-07T12:36:43;12.82;68.33
76104;HTU21D;64831;44.870;37.336;2022-12-07T12:39:19;12.82;68.49
76104;HTU21D;64831;44.870;37.336;2022-12-07T12:55:11;12.76;68.87
76104;HTU21D;64831;44.870;37.336;2022-12-07T12:57:38;12.74;68.90
76104;HTU21D;64831;44.870;37.336;2022-12-07T13:00:21;12.73;68.97
76104;HTU21D;64831;44.870;37.336;2022-12-07T13:02:55;12.72;69.04
76104;HTU21D;64831;44.870;37.336;2022-12-07T13:05:23;12.72;69.07
76104;HTU21D;64831;44.870;37.336;2022-12-07T13:07:58;12.73;69.10
76104;HTU21D;64831;44.870;37.336;2022-12-07T13:21:01;12.67;69.03
76104;HTU21D;64831;44.870;37.336;2022-12-07T13:23:55;12.62;69.07
76104;HTU21D;64831;44.870;37.336;2022-12-07T13:29:16;12.53;69.20
76104;HTU21D;64831;44.870;37.336;2022-12-07T13:31:51;12.51;69.26
76104;HTU21D;64831;44.870;37.336;2022-12-07T13:34:37;12.46;69.31
76104;HTU21D;64831;44.870;37.336;2022-12-07T13:39:45;12.41;69.48
76104;HTU21D;64831;44.870;37.336;2022-12-07T13:42:29;12.37;69.55
76104;HTU21D;64831;44.870;37.336;2022-12-07T13:44:57;12.32;69.59
76104;HTU21D;64831;44.870;37.336;2022-12-07T13:47:36;12.31;69.68
76104;HTU21D;64831;44.870;37.336;2022-12-07T13:50:27;12.28;69.75
76104;HTU21D;64831;44.870;37.336;2022-12-07T13:52:58;12.23;69.83
76104;HTU21D;64831;44.870;37.336;2022-12-07T13:55:24;12.21;69.91
76104;HTU21D;64831;44.870;37.336;2022-12-07T13:57:52;12.20;69.99
76104;HTU21D;64831;44.870;37.336;2022-12-07T14:00:26;12.18;70.06
76104;HTU21D;64831;44.870;37.336;2022-12-07T14:03:03;12.16;70.12
76104;HTU21D;64831;44.870;37.336;2022-12-07T14:05:32;12.14;70.16
76104;HTU21D;64831;44.870;37.336;2022-12-07T14:08:21;12.13;70.23
76104;HTU21D;64831;44.870;37.336;2022-12-07T14:13:30;12.07;70.37
76104;HTU21D;64831;44.870;37.336;2022-12-07T14:15:56;12.04;70.40
76104;HTU21D;64831;44.870;37.336;2022-12-07T14:21:06;12.02;70.52
76104;HTU21D;64831;44.870;37.336;2022-12-07T14:23:40;12.01;70.52
76104;HTU21D;64831;44.870;37.336;2022-12-07T14:26:19;12.01;70.56
76104;HTU21D;64831;44.870;37.336;2022-12-07T14:28:46;11.97;70.52
76104;HTU21D;64831;44.870;37.336;2022-12-07T14:31:14;11.93;70.54
76104;HTU21D;64831;44.870;37.336;2022-12-07T14:33:41;11.88;70.59
76104;HTU21D;64831;44.870;37.336;2022-12-07T14:36:11;11.85;70.62
76104;HTU21D;64831;44.870;37.336;2022-12-07T14:38:37;11.83;70.67
76104;HTU21D;64831;44.870;37.336;2022-12-07T14:41:14;11.81;70.73
76104;HTU21D;64831;44.870;37.336;2022-12-07T14:43:59;11.76;70.80
76104;HTU21D;64831;44.870;37.336;2022-12-07T14:46:25;11.74;70.84
76104;HTU21D;64831;44.870;37.336;2022-12-07T14:48:51;11.72;70.89
76104;HTU21D;64831;44.870;37.336;2022-12-07T14:51:17;11.70;70.97
76104;HTU21D;64831;44.870;37.336;2022-12-07T14:53:50;11.68;71.03
76104;HTU21D;64831;44.870;37.336;2022-12-07T14:56:17;11.66;71.06
76104;HTU21D;64831;44.870;37.336;2022-12-07T14:58:43;11.63;71.14
76104;HTU21D;64831;44.870;37.336;2022-12-07T15:01:09;11.61;71.13
76104;HTU21D;64831;44.870;37.336;2022-12-07T15:03:35;11.57;71.17
76104;HTU21D;64831;44.870;37.336;2022-12-07T15:06:06;11.55;71.27
76104;HTU21D;64831;44.870;37.336;2022-12-07T15:08:32;11.52;71.28
76104;HTU21D;64831;44.870;37.336;2022-12-07T15:10:58;11.49;71.33
76104;HTU21D;64831;44.870;37.336;2022-12-07T15:13:24;11.48;71.40
76104;HTU21D;64831;44.870;37.336;2022-12-07T15:16:10;11.45;71.44
76104;HTU21D;64831;44.870;37.336;2022-12-07T15:18:38;11.41;71.38
76104;HTU21D;64831;44.870;37.336;2022-12-07T15:21:04;11.38;71.43
76104;HTU21D;64831;44.870;37.336;2022-12-07T15:23:30;11.36;71.56
76104;HTU21D;64831;44.870;37.336;2022-12-07T15:25:56;11.33;71.69
76104;HTU21D;64831;44.870;37.336;2022-12-07T15:28:22;11.33;71.84
76104;HTU21D;64831;44.870;37.336;2022-12-07T15:30:48;11.36;71.94
76104;HTU21D;64831;44.870;37.336;2022-12-07T15:33:17;11.37;71.91
76104;HTU21D;64831;44.870;37.336;2022-12-07T15:35:44;11.36;71.86
76104;HTU21D;64831;44.870;37.336;2022-12-07T15:38:11;11.31;71.85
76104;HTU21D;64831;44.870;37.336;2022-12-07T15:40:37;11.31;71.90
76104;HTU21D;64831;44.870;37.336;2022-12-07T15:43:03;11.31;71.90
76104;HTU21D;64831;44.870;37.336;2022-12-07T15:45:29;11.30;71.92
76104;HTU21D;64831;44.870;37.336;2022-12-07T15:47:55;11.30;71.94
76104;HTU21D;64831;44.870;37.336;2022-12-07T15:50:22;11.28;71.99
76104;HTU21D;64831;44.870;37.336;2022-12-07T15:52:48;11.27;71.96
76104;HTU21D;64831;44.870;37.336;2022-12-07T15:55:14;11.24;71.97
76104;HTU21D;64831;44.870;37.336;2022-12-07T15:57:40;11.22;72.02
76104;HTU21D;64831;44.870;37.336;2022-12-07T16:00:08;11.19;72.09
76104;HTU21D;64831;44.870;37.336;2022-12-07T16:02:37;11.16;72.09
76104;HTU21D;64831;44.870;37.336;2022-12-07T16:05:03;11.14;72.10
76104;HTU21D;64831;44.870;37.336;2022-12-07T16:07:29;11.10;72.09
76104;HTU21D;64831;44.870;37.336;2022-12-07T16:09:55;11.08;72.16
76104;HTU21D;64831;44.870;37.336;2022-12-07T16:12:24;11.07;72.24
76104;HTU21D;64831;44.870;37.336;2022-12-07T16:14:50;11.05;72.22
76104;HTU21D;64831;44.870;37.336;2022-12-07T16:17:16;11.02;72.18
76104;HTU21D;64831;44.870;37.336;2022-12-07T16:19:42;10.97;72.20
76104;HTU21D;64831;44.870;37.336;2022-12-07T16:22:08;10.93;72.35
76104;HTU21D;64831;44.870;37.336;2022-12-07T16:24:34;10.93;72.51
76104;HTU21D;64831;44.870;37.336;2022-12-07T16:27:00;10.90;72.62
76104;HTU21D;64831;44.870;37.336;2022-12-07T16:29:26;10.90;72.74
76104;HTU21D;64831;44.870;37.336;2022-12-07T16:31:52;10.89;72.78
76104;HTU21D;64831;44.870;37.336;2022-12-07T16:34:18;10.90;72.81
76104;HTU21D;64831;44.870;37.336;2022-12-07T16:36:44;10.89;72.85
76104;HTU21D;64831;44.870;37.336;2022-12-07T16:39:11;10.90;72.88
76104;HTU21D;64831;44.870;37.336;2022-12-07T16:41:37;10.92;72.91
76104;HTU21D;64831;44.870;37.336;2022-12-07T16:44:06;10.92;72.87
76104;HTU21D;64831;44.870;37.336;2022-12-07T16:46:32;10.90;72.84
76104;HTU21D;64831;44.870;37.336;2022-12-07T16:48:59;10.89;72.88
76104;HTU21D;64831;44.870;37.336;2022-12-07T16:51:25;10.86;72.90
76104;HTU21D;64831;44.870;37.336;2022-12-07T16:53:52;10.86;72.94
76104;HTU21D;64831;44.870;37.336;2022-12-07T16:56:18;10.85;73.01
76104;HTU21D;64831;44.870;37.336;2022-12-07T16:58:44;10.83;73.13
76104;HTU21D;64831;44.870;37.336;2022-12-07T17:01:17;10.84;73.18
76104;HTU21D;64831;44.870;37.336;2022-12-07T17:03:43;10.82;73.22
76104;HTU21D;64831;44.870;37.336;2022-12-07T17:06:21;10.81;73.25
76104;HTU21D;64831;44.870;37.336;2022-12-07T17:08:48;10.78;73.36
76104;HTU21D;64831;44.870;37.336;2022-12-07T17:11:20;10.75;73.49
76104;HTU21D;64831;44.870;37.336;2022-12-07T17:13:49;10.73;73.53
76104;HTU21D;64831;44.870;37.336;2022-12-07T17:16:34;10.72;73.57
76104;HTU21D;64831;44.870;37.336;2022-12-07T17:19:04;10.70;73.63
76104;HTU21D;64831;44.870;37.336;2022-12-07T17:21:31;10.67;73.71
76104;HTU21D;64831;44.870;37.336;2022-12-07T17:24:02;10.68;73.73
76104;HTU21D;64831;44.870;37.336;2022-12-07T17:26:29;10.68;73.77
76104;HTU21D;64831;44.870;37.336;2022-12-07T17:28:55;10.66;73.83
76104;HTU21D;64831;44.870;37.336;2022-12-07T17:31:23;10.67;73.87
76104;HTU21D;64831;44.870;37.336;2022-12-07T17:33:49;10.69;73.86
76104;HTU21D;64831;44.870;37.336;2022-12-07T17:36:20;10.70;73.82
76104;HTU21D;64831;44.870;37.336;2022-12-07T17:38:47;10.69;73.75
76104;HTU21D;64831;44.870;37.336;2022-12-07T17:41:18;10.70;73.73
76104;HTU21D;64831;44.870;37.336;2022-12-07T17:44:04;10.68;73.67
76104;HTU21D;64831;44.870;37.336;2022-12-07T17:46:31;10.66;73.65
76104;HTU21D;64831;44.870;37.336;2022-12-07T17:48:57;10.65;73.64
76104;HTU21D;64831;44.870;37.336;2022-12-07T17:51:24;10.64;73.63
76104;HTU21D;64831;44.870;37.336;2022-12-07T17:54:10;10.60;73.60
76104;HTU21D;64831;44.870;37.336;2022-12-07T17:56:36;10.58;73.63
76104;HTU21D;64831;44.870;37.336;2022-12-07T17:59:03;10.58;73.64
76104;HTU21D;64831;44.870;37.336;2022-12-07T18:01:30;10.58;73.65
76104;HTU21D;64831;44.870;37.336;2022-12-07T18:03:56;10.57;73.66
76104;HTU21D;64831;44.870;37.336;2022-12-07T18:06:22;10.58;73.65
76104;HTU21D;64831;44.870;37.336;2022-12-07T18:08:50;10.57;73.66
76104;HTU21D;64831;44.870;37.336;2022-12-07T18:11:16;10.57;73.64
76104;HTU21D;64831;44.870;37.336;2022-12-07T18:13:42;10.56;73.67
76104;HTU21D;64831;44.870;37.336;2022-12-07T18:16:12;10.56;73.67
76104;HTU21D;64831;44.870;37.336;2022-12-07T18:18:39;10.54;73.65
76104;HTU21D;64831;44.870;37.336;2022-12-07T18:21:10;10.53;73.64
76104;HTU21D;64831;44.870;37.336;2022-12-07T18:23:40;10.48;73.64
76104;HTU21D;64831;44.870;37.336;2022-12-07T18:26:06;10.44;73.67
76104;HTU21D;64831;44.870;37.336;2022-12-07T18:28:32;10.40;73.67
76104;HTU21D;64831;44.870;37.336;2022-12-07T18:30:58;10.35;73.70
76104;HTU21D;64831;44.870;37.336;2022-12-07T18:33:23;10.30;73.83
76104;HTU21D;64831;44.870;37.336;2022-12-07T18:35:50;10.25;73.93
76104;HTU21D;64831;44.870;37.336;2022-12-07T18:38:17;10.21;74.02
76104;HTU21D;64831;44.870;37.336;2022-12-07T18:40:44;10.16;74.10
76104;HTU21D;64831;44.870;37.336;2022-12-07T18:43:11;10.14;74.18
76104;HTU21D;64831;44.870;37.336;2022-12-07T18:45:40;10.13;74.28
76104;HTU21D;64831;44.870;37.336;2022-12-07T18:48:08;10.10;74.28
76104;HTU21D;64831;44.870;37.336;2022-12-07T18:50:35;10.07;74.32
76104;HTU21D;64831;44.870;37.336;2022-12-07T18:53:04;10.05;74.36
76104;HTU21D;64831;44.870;37.336;2022-12-07T18:55:30;10.06;74.41
76104;HTU21D;64831;44.870;37.336;2022-12-07T18:57:57;10.06;74.44
76104;HTU21D;64831;44.870;37.336;2022-12-07T19:00:25;10.05;74.47
76104;HTU21D;64831;44.870;37.336;2022-12-07T19:02:52;10.05;74.51
76104;HTU21D;64831;44.870;37.336;2022-12-07T19:05:19;10.05;74.52
76104;HTU21D;64831;44.870;37.336;2022-12-07T19:07:45;10.05;74.49
76104;HTU21D;64831;44.870;37.336;2022-12-07T19:10:13;10.06;74.51
76104;HTU21D;64831;44.870;37.336;2022-12-07T19:12:40;10.10;74.57
76104;HTU21D;64831;44.870;37.336;2022-12-07T19:15:07;10.09;74.40
76104;HTU21D;64831;44.870;37.336;2022-12-07T19:17:33;10.10;74.41
76104;HTU21D;64831;44.870;37.336;2022-12-07T19:20:01;10.10;74.38
76104;HTU21D;64831;44.870;37.336;2022-12-07T19:22:27;10.11;74.39
76104;HTU21D;64831;44.870;37.336;2022-12-07T19:24:53;10.11;74.39
76104;HTU21D;64831;44.870;37.336;2022-12-07T19:27:21;10.12;74.45
76104;HTU21D;64831;44.870;37.336;2022-12-07T19:29:47;10.14;74.48
76104;HTU21D;64831;44.870;37.336;2022-12-07T19:32:15;10.15;74.42
76104;HTU21D;64831;44.870;37.336;2022-12-07T19:34:43;10.16;74.38
76104;HTU21D;64831;44.870;37.336;2022-12-07T19:37:10;10.15;74.38
76104;HTU21D;64831;44.870;37.336;2022-12-07T19:39:40;10.19;74.41
76104;HTU21D;64831;44.870;37.336;2022-12-07T19:42:06;10.16;74.38
76104;HTU21D;64831;44.870;37.336;2022-12-07T19:44:32;10.16;74.30
76104;HTU21D;64831;44.870;37.336;2022-12-07T19:47:00;10.15;74.22
76104;HTU21D;64831;44.870;37.336;2022-12-07T19:49:28;10.12;74.19
76104;HTU21D;64831;44.870;37.336;2022-12-07T19:51:56;10.13;74.31
76104;HTU21D;64831;44.870;37.336;2022-12-07T19:54:25;10.15;74.41
76104;HTU21D;64831;44.870;37.336;2022-12-07T19:56:53;10.15;74.29
76104;HTU21D;64831;44.870;37.336;2022-12-07T19:59:20;10.14;74.20
76104;HTU21D;64831;44.870;37.336;2022-12-07T20:01:47;10.12;74.16
76104;HTU21D;64831;44.870;37.336;2022-12-07T20:04:15;10.12;74.20
76104;HTU21D;64831;44.870;37.336;2022-12-07T20:06:42;10.12;74.21
76104;HTU21D;64831;44.870;37.336;2022-12-07T20:09:09;10.11;74.23
76104;HTU21D;64831;44.870;37.336;2022-12-07T20:11:35;10.11;74.18
76104;HTU21D;64831;44.870;37.336;2022-12-07T20:14:20;10.14;74.40
76104;HTU21D;64831;44.870;37.336;2022-12-07T20:16:47;10.23;74.73
76104;HTU21D;64831;44.870;37.336;2022-12-07T20:19:13;10.35;75.05
76104;HTU21D;64831;44.870;37.336;2022-12-07T20:21:40;10.46;75.09
76104;HTU21D;64831;44.870;37.336;2022-12-07T20:24:09;10.60;75.12
76104;HTU21D;64831;44.870;37.336;2022-12-07T20:26:36;10.72;75.04
76104;HTU21D;64831;44.870;37.336;2022-12-07T20:29:06;10.84;74.89
76104;HTU21D;64831;44.870;37.336;2022-12-07T20:31:32;10.94;74.70
76104;HTU21D;64831;44.870;37.336;2022-12-07T20:33:58;11.03;74.44
76104;HTU21D;64831;44.870;37.336;2022-12-07T20:36:25;11.11;74.22
76104;HTU21D;64831;44.870;37.336;2022-12-07T20:38:51;11.13;74.02
76104;HTU21D;64831;44.870;37.336;2022-12-07T20:41:18;11.18;73.83
76104;HTU21D;64831;44.870;37.336;2022-12-07T20:44:03;11.20;73.65
76104;HTU21D;64831;44.870;37.336;2022-12-07T20:46:31;11.20;73.58
76104;HTU21D;64831;44.870;37.336;2022-12-07T20:48:58;11.22;73.64
76104;HTU21D;64831;44.870;37.336;2022-12-07T20:51:28;11.23;73.61
76104;HTU21D;64831;44.870;37.336;2022-12-07T20:53:55;11.19;73.61
76104;HTU21D;64831;44.870;37.336;2022-12-07T20:56:23;11.18;73.72
76104;HTU21D;64831;44.870;37.336;2022-12-07T20:58:52;11.19;73.77
76104;HTU21D;64831;44.870;37.336;2022-12-07T21:01:18;11.16;73.77
76104;HTU21D;64831;44.870;37.336;2022-12-07T21:03:44;11.15;73.83
76104;HTU21D;64831;44.870;37.336;2022-12-07T21:06:15;11.12;73.91
76104;HTU21D;64831;44.870;37.336;2022-12-07T21:08:45;11.12;74.01
76104;HTU21D;64831;44.870;37.336;2022-12-07T21:11:12;11.10;74.12
76104;HTU21D;64831;44.870;37.336;2022-12-07T21:13:38;11.07;74.22
76104;HTU21D;64831;44.870;37.336;2022-12-07T21:16:09;11.04;74.31
76104;HTU21D;64831;44.870;37.336;2022-12-07T21:18:36;11.04;74.47
76104;HTU21D;64831;44.870;37.336;2022-12-07T21:21:07;11.03;74.67
76104;HTU21D;64831;44.870;37.336;2022-12-07T21:23:33;11.03;74.74
76104;HTU21D;64831;44.870;37.336;2022-12-07T21:26:00;11.02;74.80
76104;HTU21D;64831;44.870;37.336;2022-12-07T21:28:26;11.02;74.86
76104;HTU21D;64831;44.870;37.336;2022-12-07T21:30:56;11.01;74.86
76104;HTU21D;64831;44.870;37.336;2022-12-07T21:33:22;11.01;74.87
76104;HTU21D;64831;44.870;37.336;2022-12-07T21:35:48;10.99;74.83
76104;HTU21D;64831;44.870;37.336;2022-12-07T21:38:15;10.96;74.87
76104;HTU21D;64831;44.870;37.336;2022-12-07T21:40:40;10.94;74.92
76104;HTU21D;64831;44.870;37.336;2022-12-07T21:43:06;10.93;74.96
76104;HTU21D;64831;44.870;37.336;2022-12-07T21:45:32;10.93;74.99
76104;HTU21D;64831;44.870;37.336;2022-12-07T21:47:58;10.94;74.99
76104;HTU21D;64831;44.870;37.336;2022-12-07T21:50:24;10.92;74.92
76104;HTU21D;64831;44.870;37.336;2022-12-07T21:52:50;10.88;74.89
76104;HTU21D;64831;44.870;37.336;2022-12-07T21:55:16;10.90;74.86
76104;HTU21D;64831;44.870;37.336;2022-12-07T21:57:42;10.87;74.87
76104;HTU21D;64831;44.870;37.336;2022-12-07T22:00:08;10.87;74.86
76104;HTU21D;64831;44.870;37.336;2022-12-07T22:02:34;10.86;74.82
76104;HTU21D;64831;44.870;37.336;2022-12-07T22:05:00;10.83;74.80
76104;HTU21D;64831;44.870;37.336;2022-12-07T22:07:26;10.80;74.76
76104;HTU21D;64831;44.870;37.336;2022-12-07T22:09:52;10.77;74.75
76104;HTU21D;64831;44.870;37.336;2022-12-07T22:12:18;10.71;74.74
76104;HTU21D;64831;44.870;37.336;2022-12-07T22:14:44;10.65;74.64
76104;HTU21D;64831;44.870;37.336;2022-12-07T22:17:28;10.56;74.54
76104;HTU21D;64831;44.870;37.336;2022-12-07T22:19:54;10.49;74.57
76104;HTU21D;64831;44.870;37.336;2022-12-07T22:22:20;10.39;74.36
76104;HTU21D;64831;44.870;37.336;2022-12-07T22:24:46;10.27;74.06
76104;HTU21D;64831;44.870;37.336;2022-12-07T22:27:18;10.15;73.93
76104;HTU21D;64831;44.870;37.336;2022-12-07T22:29:44;10.03;74.02
76104;HTU21D;64831;44.870;37.336;2022-12-07T22:32:10;9.93;74.12
76104;HTU21D;64831;44.870;37.336;2022-12-07T22:34:38;9.83;74.19
76104;HTU21D;64831;44.870;37.336;2022-12-07T22:37:04;9.75;74.36
76104;HTU21D;64831;44.870;37.336;2022-12-07T22:39:30;9.65;74.60
76104;HTU21D;64831;44.870;37.336;2022-12-07T22:41:56;9.63;74.85
76104;HTU21D;64831;44.870;37.336;2022-12-07T22:44:21;9.59;75.06
76104;HTU21D;64831;44.870;37.336;2022-12-07T22:46:47;9.54;75.23
76104;HTU21D;64831;44.870;37.336;2022-12-07T22:49:13;9.54;75.46
76104;HTU21D;64831;44.870;37.336;2022-12-07T22:51:40;9.60;75.95
76104;HTU21D;64831;44.870;37.336;2022-12-07T22:54:07;9.69;76.41
76104;HTU21D;64831;44.870;37.336;2022-12-07T22:56:35;9.79;76.52
76104;HTU21D;64831;44.870;37.336;2022-12-07T22:59:03;9.92;76.76
76104;HTU21D;64831;44.870;37.336;2022-12-07T23:01:29;10.04;76.77
76104;HTU21D;64831;44.870;37.336;2022-12-07T23:03:55;10.16;76.86
76104;HTU21D;64831;44.870;37.336;2022-12-07T23:06:29;10.30;76.86
76104;HTU21D;64831;44.870;37.336;2022-12-07T23:09:01;10.41;76.86
76104;HTU21D;64831;44.870;37.336;2022-12-07T23:11:30;10.50;76.79
76104;HTU21D;64831;44.870;37.336;2022-12-07T23:14:24;10.57;76.71
76104;HTU21D;64831;44.870;37.336;2022-12-07T23:16:50;10.66;76.63
76104;HTU21D;64831;44.870;37.336;2022-12-07T23:19:16;10.68;76.59
76104;HTU21D;64831;44.870;37.336;2022-12-07T23:21:42;10.74;76.66
76104;HTU21D;64831;44.870;37.336;2022-12-07T23:24:11;10.78;76.58
76104;HTU21D;64831;44.870;37.336;2022-12-07T23:26:38;10.80;76.52
76104;HTU21D;64831;44.870;37.336;2022-12-07T23:29:04;10.79;76.41
76104;HTU21D;64831;44.870;37.336;2022-12-07T23:31:30;10.80;76.44
76104;HTU21D;64831;44.870;37.336;2022-12-07T23:33:56;10.79;76.41
76104;HTU21D;64831;44.870;37.336;2022-12-07T23:36:24;10.77;76.39
76104;HTU21D;64831;44.870;37.336;2022-12-07T23:38:51;10.79;76.48
76104;HTU21D;64831;44.870;37.336;2022-12-07T23:41:20;10.81;76.70
76104;HTU21D;64831;44.870;37.336;2022-12-07T23:43:46;10.82;76.90
76104;HTU21D;64831;44.870;37.336;2022-12-07T23:46:15;10.86;76.95
76104;HTU21D;64831;44.870;37.336;2022-12-07T23:48:41;10.88;77.02
76104;HTU21D;64831;44.870;37.336;2022-12-07T23:51:08;10.94;77.07
76104;HTU21D;64831;44.870;37.336;2022-12-07T23:53:36;10.98;77.05
76104;HTU21D;64831;44.870;37.336;2022-12-07T23:56:03;11.03;77.13
76104;HTU21D;64831;44.870;37.336;2022-12-07T23:58:29;11.05;77.09
